Time,TemperatureF,DewpointF,PressureIn,WindDirection,WindDirectionDegrees,WindSpeedMPH,WindSpeedGustMPH,Humidity,HourlyPrecipIn,Conditions,Clouds,dailyrainin,SoftwareType,DateUTC
2013-07-19 00:02:00,74.4,72.9,30.07,SSW,194,0.0,0.0,95,0.00,,,0.00,Wunderground v.1.15,2013-07-19 04:02:00,
2013-07-19 00:12:00,74.0,72.5,30.07,SSW,194,0.0,0.0,95,0.00,,,0.00,Wunderground v.1.15,2013-07-19 04:12:00,
2013-07-19 00:22:00,73.8,72.6,30.07,SSW,194,0.0,0.0,96,0.00,,,0.00,Wunderground v.1.15,2013-07-19 04:22:00,
2013-07-19 00:32:00,73.8,72.6,30.07,SSW,194,0.0,0.0,96,0.00,,,0.00,Wunderground v.1.15,2013-07-19 04:32:00,
2013-07-19 00:42:00,73.6,72.4,30.07,SSW,194,0.0,0.0,96,0.00,,,0.00,Wunderground v.1.15,2013-07-19 04:42:00,
2013-07-19 00:52:00,73.4,72.2,30.07,SSW,194,0.0,0.0,96,0.00,,,0.00,Wunderground v.1.15,2013-07-19 04:52:00,
2013-07-19 01:02:00,73.0,71.8,30.07,SSW,194,0.0,0.0,96,0.00,,,0.00,Wunderground v.1.15,2013-07-19 05:02:00,
2013-07-19 01:12:00,73.0,71.8,30.07,SSW,194,0.0,0.0,96,0.00,,,0.00,Wunderground v.1.15,2013-07-19 05:12:00,
2013-07-19 01:22:00,72.8,71.6,30.07,SSW,194,0.0,0.0,96,0.00,,,0.00,Wunderground v.1.15,2013-07-19 05:22:00,
2013-07-19 01:32:00,72.8,71.6,30.06,SSW,194,0.0,0.0,96,0.00,,,0.00,Wunderground v.1.15,2013-07-19 05:32:00,
2013-07-19 01:42:00,72.6,71.4,30.06,SSW,194,0.0,0.0,96,0.00,,,0.00,Wunderground v.1.15,2013-07-19 05:42:00,
2013-07-19 01:52:00,72.4,71.2,30.06,SSW,194,0.0,0.0,96,0.00,,,0.00,Wunderground v.1.15,2013-07-19 05:52:00,
2013-07-19 02:02:00,72.3,71.4,30.06,SSW,194,0.0,0.0,97,0.00,,,0.00,Wunderground v.1.15,2013-07-19 06:02:00,
2013-07-19 02:12:00,72.2,71.0,30.06,SSW,194,0.0,0.0,96,0.00,,,0.00,Wunderground v.1.15,2013-07-19 06:12:00,
2013-07-19 02:22:00,72.4,71.5,30.06,SSW,194,0.0,0.0,97,0.00,,,0.00,Wunderground v.1.15,2013-07-19 06:22:00,
2013-07-19 02:32:00,72.3,71.4,30.05,SSW,194,0.0,0.0,97,0.00,,,0.00,Wunderground v.1.15,2013-07-19 06:32:00,
2013-07-19 02:42:00,72.1,71.2,30.05,SSW,194,0.0,0.0,97,0.00,,,0.00,Wunderground v.1.15,2013-07-19 06:42:00,
2013-07-19 02:52:00,72.1,71.2,30.05,SSW,194,0.0,0.0,97,0.00,,,0.00,Wunderground v.1.15,2013-07-19 06:52:00,
2013-07-19 03:02:00,71.9,71.0,30.04,SSW,194,0.0,0.0,97,0.00,,,0.00,Wunderground v.1.15,2013-07-19 07:02:00,
2013-07-19 03:12:00,71.8,70.9,30.03,SSW,194,0.0,0.0,97,0.00,,,0.00,Wunderground v.1.15,2013-07-19 07:12:00,
2013-07-19 03:22:00,71.7,70.8,30.03,SSW,194,0.0,0.0,97,0.00,,,0.00,Wunderground v.1.15,2013-07-19 07:22:00,
2013-07-19 03:32:00,71.5,70.6,30.03,SSW,194,0.0,0.0,97,0.00,,,0.00,Wunderground v.1.15,2013-07-19 07:32:00,
2013-07-19 03:42:00,71.5,70.6,30.04,SSW,194,0.0,0.0,97,0.00,,,0.00,Wunderground v.1.15,2013-07-19 07:42:00,
2013-07-19 03:52:00,71.2,70.3,30.04,SSW,194,0.0,0.0,97,0.00,,,0.00,Wunderground v.1.15,2013-07-19 07:52:00,
2013-07-19 04:02:00,71.3,70.4,30.04,SSW,194,0.0,0.0,97,0.00,,,0.00,Wunderground v.1.15,2013-07-19 08:02:00,
2013-07-19 04:12:00,71.3,70.4,30.04,SSW,194,0.0,0.0,97,0.00,,,0.00,Wunderground v.1.15,2013-07-19 08:12:00,
2013-07-19 04:22:00,70.8,69.9,30.04,SSW,194,0.0,0.0,97,0.00,,,0.00,Wunderground v.1.15,2013-07-19 08:22:00,
2013-07-19 04:32:00,70.8,69.9,30.03,SSW,194,0.0,0.0,97,0.00,,,0.00,Wunderground v.1.15,2013-07-19 08:32:00,
2013-07-19 04:42:00,70.4,69.5,30.03,SSW,194,0.0,0.0,97,0.00,,,0.00,Wunderground v.1.15,2013-07-19 08:42:00,
2013-07-19 04:52:00,70.2,69.3,30.03,SSW,194,0.0,0.0,97,0.00,,,0.00,Wunderground v.1.15,2013-07-19 08:52:00,
2013-07-19 05:02:00,70.4,69.5,30.03,SSW,194,0.0,0.0,97,0.00,,,0.00,Wunderground v.1.15,2013-07-19 09:02:00,
2013-07-19 05:12:00,70.6,70.0,30.03,SSW,194,0.0,0.0,98,0.00,,,0.00,Wunderground v.1.15,2013-07-19 09:12:00,
2013-07-19 05:22:00,70.5,69.9,30.03,SSW,194,0.0,0.0,98,0.00,,,0.00,Wunderground v.1.15,2013-07-19 09:22:00,
2013-07-19 05:32:00,70.3,69.4,30.03,SSW,194,0.0,0.0,97,0.00,,,0.00,Wunderground v.1.15,2013-07-19 09:32:00,
2013-07-19 05:52:00,70.1,69.2,30.03,SSW,194,0.0,0.0,97,0.00,,,0.00,Wunderground v.1.15,2013-07-19 09:52:00,
2013-07-19 06:02:00,70.4,69.8,30.03,SSW,194,0.0,0.0,98,0.00,,,0.00,Wunderground v.1.15,2013-07-19 10:02:00,
2013-07-19 06:12:00,70.4,69.8,30.03,SSW,194,0.0,0.0,98,0.00,,,0.00,Wunderground v.1.15,2013-07-19 10:12:00,
2013-07-19 06:22:00,70.1,69.2,30.04,South,184,0.0,0.0,97,0.00,,,0.00,Wunderground v.1.15,2013-07-19 10:22:00,
2013-07-19 06:32:00,70.2,69.3,30.04,South,182,0.0,0.0,97,0.00,,,0.00,Wunderground v.1.15,2013-07-19 10:32:00,
2013-07-19 06:42:00,70.5,69.9,30.04,South,185,0.0,0.0,98,0.00,,,0.00,Wunderground v.1.15,2013-07-19 10:42:00,
2013-07-19 06:52:00,71.0,70.4,30.04,South,185,0.0,0.0,98,0.00,,,0.00,Wunderground v.1.15,2013-07-19 10:52:00,
2013-07-19 07:02:00,71.1,70.5,30.04,South,185,0.0,0.0,98,0.00,,,0.00,Wunderground v.1.15,2013-07-19 11:02:00,
2013-07-19 07:12:00,71.2,70.6,30.04,South,170,0.0,0.0,98,0.00,,,0.00,Wunderground v.1.15,2013-07-19 11:12:00,
2013-07-19 07:22:00,71.7,71.1,30.04,South,170,0.0,0.0,98,0.00,,,0.00,Wunderground v.1.15,2013-07-19 11:22:00,
2013-07-19 07:32:00,72.4,71.8,30.05,South,181,0.0,0.0,98,0.00,,,0.00,Wunderground v.1.15,2013-07-19 11:32:00,
2013-07-19 07:42:00,72.7,71.8,30.05,SSE,148,0.0,0.0,97,0.00,,,0.00,Wunderground v.1.15,2013-07-19 11:42:00,
2013-07-19 07:52:00,73.5,72.6,30.05,SSE,148,0.0,0.0,97,0.00,,,0.00,Wunderground v.1.15,2013-07-19 11:52:00,
2013-07-19 08:02:00,74.4,73.5,30.05,SSE,148,0.0,0.0,97,0.00,,,0.00,Wunderground v.1.15,2013-07-19 12:02:00,
2013-07-19 08:12:00,75.6,74.1,30.06,South,180,0.0,0.0,95,0.00,,,0.00,Wunderground v.1.15,2013-07-19 12:12:00,
2013-07-19 08:22:00,76.2,74.3,30.06,South,186,0.0,0.0,94,0.00,,,0.00,Wunderground v.1.15,2013-07-19 12:22:00,
2013-07-19 08:32:00,76.9,75.0,30.06,South,178,0.0,0.0,94,0.00,,,0.00,Wunderground v.1.15,2013-07-19 12:32:00,
2013-07-19 08:42:00,77.4,74.9,30.06,South,170,0.0,0.0,92,0.00,,,0.00,Wunderground v.1.15,2013-07-19 12:42:00,
2013-07-19 08:52:00,78.1,74.6,30.06,SW,214,0.0,0.0,89,0.00,,,0.00,Wunderground v.1.15,2013-07-19 12:52:00,
2013-07-19 09:02:00,78.6,75.1,30.06,SSW,213,0.0,0.0,89,0.00,,,0.00,Wunderground v.1.15,2013-07-19 13:02:00,
2013-07-19 09:12:00,78.9,74.4,30.06,South,186,0.0,0.0,86,0.00,,,0.00,Wunderground v.1.15,2013-07-19 13:12:00,
2013-07-19 09:22:00,79.5,74.6,30.07,West,259,0.0,0.0,85,0.00,,,0.00,Wunderground v.1.15,2013-07-19 13:22:00,
2013-07-19 09:32:00,79.7,74.8,30.07,WSW,237,0.0,0.0,85,0.00,,,0.00,Wunderground v.1.15,2013-07-19 13:32:00,
2013-07-19 09:42:00,79.2,74.6,30.07,SSW,213,4.0,4.0,86,0.00,,,0.00,Wunderground v.1.15,2013-07-19 13:42:00,
2013-07-19 09:52:00,79.2,74.6,30.07,South,182,3.0,3.0,86,0.00,,,0.00,Wunderground v.1.15,2013-07-19 13:52:00,
2013-07-19 10:02:00,79.9,75.3,30.07,SSW,208,3.0,4.0,86,0.00,,,0.00,Wunderground v.1.15,2013-07-19 14:02:00,
2013-07-19 10:12:00,80.3,74.7,30.07,West,270,4.0,5.0,83,0.00,,,0.00,Wunderground v.1.15,2013-07-19 14:12:00,
2013-07-19 10:32:00,81.5,75.8,30.07,WSW,237,5.0,5.0,83,0.00,,,0.00,Wunderground v.1.15,2013-07-19 14:32:00,
2013-07-19 10:42:00,82.3,75.9,30.07,SW,215,5.0,6.0,81,0.00,,,0.00,Wunderground v.1.15,2013-07-19 14:42:00,
2013-07-19 10:52:00,82.6,75.4,30.07,WSW,239,4.0,4.0,79,0.00,,,0.00,Wunderground v.1.15,2013-07-19 14:52:00,
2013-07-19 11:02:00,82.5,75.7,30.07,WSW,258,4.0,7.0,80,0.00,,,0.00,Wunderground v.1.15,2013-07-19 15:02:00,
2013-07-19 11:12:00,83.2,75.6,30.07,SSW,202,4.0,4.0,78,0.00,,,0.00,Wunderground v.1.15,2013-07-19 15:12:00,
2013-07-19 11:22:00,84.0,76.0,30.07,South,169,4.0,5.0,77,0.00,,,0.00,Wunderground v.1.15,2013-07-19 15:22:00,
2013-07-19 11:32:00,84.4,76.0,30.07,West,271,3.0,6.0,76,0.00,,,0.00,Wunderground v.1.15,2013-07-19 15:32:00,
2013-07-19 11:42:00,82.8,75.6,30.07,WSW,243,5.0,5.0,79,0.00,,,0.00,Wunderground v.1.15,2013-07-19 15:42:00,
2013-07-19 11:52:00,82.9,75.7,30.06,WSW,257,4.0,4.0,79,0.00,,,0.00,Wunderground v.1.15,2013-07-19 15:52:00,
2013-07-19 12:02:00,82.9,75.3,30.06,SSW,202,4.0,4.0,78,0.00,,,0.00,Wunderground v.1.15,2013-07-19 16:02:00,
2013-07-19 12:12:00,85.0,74.5,30.06,West,276,2.0,2.0,71,0.00,,,0.00,Wunderground v.1.15,2013-07-19 16:12:00,
2013-07-19 12:22:00,83.6,74.4,30.06,NNW,336,5.0,5.0,74,0.00,,,0.00,Wunderground v.1.15,2013-07-19 16:22:00,
2013-07-19 12:32:00,82.8,74.5,30.06,WSW,250,2.0,7.0,76,0.00,,,0.00,Wunderground v.1.15,2013-07-19 16:32:00,
2013-07-19 12:42:00,84.2,74.6,30.05,SW,215,5.0,6.0,73,0.00,,,0.00,Wunderground v.1.15,2013-07-19 16:42:00,
2013-07-19 12:52:00,85.5,75.9,30.05,SW,221,3.0,3.0,73,0.00,,,0.00,Wunderground v.1.15,2013-07-19 16:52:00,
2013-07-19 13:02:00,85.5,74.2,30.04,SSW,204,4.0,4.0,69,0.00,,,0.00,Wunderground v.1.15,2013-07-19 17:02:00,
2013-07-19 13:12:00,85.7,76.0,30.04,South,188,3.0,4.0,73,0.00,,,0.00,Wunderground v.1.15,2013-07-19 17:12:00,
2013-07-19 13:22:00,86.2,74.0,30.03,SSW,209,4.0,4.0,67,0.00,,,0.00,Wunderground v.1.15,2013-07-19 17:22:00,
2013-07-19 13:32:00,86.6,73.9,30.03,WSW,250,3.0,4.0,66,0.00,,,0.00,Wunderground v.1.15,2013-07-19 17:32:00,
2013-07-19 13:42:00,86.6,76.5,30.02,SSW,196,4.0,7.0,72,0.00,,,0.00,Wunderground v.1.15,2013-07-19 17:42:00,
2013-07-19 13:52:00,86.4,75.9,30.01,SSE,155,3.0,3.0,71,0.00,,,0.00,Wunderground v.1.15,2013-07-19 17:52:00,
2013-07-19 14:02:00,87.3,74.1,30.01,WSW,250,4.0,5.0,65,0.00,,,0.00,Wunderground v.1.15,2013-07-19 18:02:00,
2013-07-19 14:12:00,86.9,74.2,30.00,West,265,3.0,3.0,66,0.00,,,0.00,Wunderground v.1.15,2013-07-19 18:12:00,
2013-07-19 14:22:00,87.2,72.6,30.00,SSE,159,4.0,4.0,62,0.00,,,0.00,Wunderground v.1.15,2013-07-19 18:22:00,
2013-07-19 14:32:00,87.6,73.4,30.00,SSE,159,3.0,5.0,63,0.00,,,0.00,Wunderground v.1.15,2013-07-19 18:32:00,
2013-07-19 14:42:00,87.7,74.0,29.99,SW,225,3.0,3.0,64,0.00,,,0.00,Wunderground v.1.15,2013-07-19 18:42:00,
2013-07-19 14:52:00,87.9,71.3,29.99,South,188,4.0,5.0,58,0.00,,,0.00,Wunderground v.1.15,2013-07-19 18:52:00,
2013-07-19 15:02:00,87.9,73.7,29.99,SSE,159,4.0,4.0,63,0.00,,,0.00,Wunderground v.1.15,2013-07-19 19:02:00,
2013-07-19 15:12:00,87.7,73.1,29.99,West,261,3.0,3.0,62,0.00,,,0.00,Wunderground v.1.15,2013-07-19 19:12:00,
2013-07-19 15:22:00,87.3,73.6,29.99,SE,134,4.0,4.0,64,0.00,,,0.00,Wunderground v.1.15,2013-07-19 19:22:00,
2013-07-19 15:32:00,87.9,75.1,29.98,SW,234,4.0,4.0,66,0.00,,,0.00,Wunderground v.1.15,2013-07-19 19:32:00,
2013-07-19 15:42:00,87.3,73.6,29.98,South,182,5.0,5.0,64,0.00,,,0.00,Wunderground v.1.15,2013-07-19 19:42:00,
2013-07-19 15:52:00,86.6,73.0,29.97,SW,216,3.0,4.0,64,0.00,,,0.00,Wunderground v.1.15,2013-07-19 19:52:00,
2013-07-19 16:02:00,88.4,76.5,29.97,South,170,4.0,5.0,68,0.00,,,0.00,Wunderground v.1.15,2013-07-19 20:02:00,
2013-07-19 16:12:00,88.0,75.2,29.97,South,180,4.0,4.0,66,0.00,,,0.00,Wunderground v.1.15,2013-07-19 20:12:00,
2013-07-19 16:22:00,87.5,74.3,29.97,SW,214,3.0,6.0,65,0.00,,,0.00,Wunderground v.1.15,2013-07-19 20:22:00,
2013-07-19 16:32:00,88.1,73.9,29.97,SW,215,5.0,6.0,63,0.00,,,0.00,Wunderground v.1.15,2013-07-19 20:32:00,
2013-07-19 16:42:00,88.5,73.8,29.96,SSE,155,4.0,4.0,62,0.00,,,0.00,Wunderground v.1.15,2013-07-19 20:42:00,
2013-07-19 16:52:00,87.9,75.1,29.96,SE,141,5.0,5.0,66,0.00,,,0.00,Wunderground v.1.15,2013-07-19 20:52:00,
2013-07-19 17:02:00,86.6,75.2,29.96,SSE,163,4.0,4.0,69,0.00,,,0.00,Wunderground v.1.15,2013-07-19 21:02:00,
2013-07-19 17:12:00,87.8,76.4,29.95,South,181,2.0,2.0,69,0.00,,,0.00,Wunderground v.1.15,2013-07-19 21:12:00,
2013-07-19 17:22:00,88.0,76.1,29.95,SSE,161,4.0,4.0,68,0.00,,,0.00,Wunderground v.1.15,2013-07-19 21:22:00,
2013-07-19 17:32:00,87.9,74.7,29.95,South,187,4.0,4.0,65,0.00,,,0.00,Wunderground v.1.15,2013-07-19 21:32:00,
2013-07-19 17:42:00,87.7,74.0,29.95,South,180,4.0,5.0,64,0.00,,,0.00,Wunderground v.1.15,2013-07-19 21:42:00,
2013-07-19 17:52:00,87.4,73.3,29.94,South,172,4.0,4.0,63,0.00,,,0.00,Wunderground v.1.15,2013-07-19 21:52:00,
2013-07-19 18:02:00,87.4,73.7,29.94,SE,139,4.0,6.0,64,0.00,,,0.00,Wunderground v.1.15,2013-07-19 22:02:00,
2013-07-19 18:12:00,87.3,74.1,29.94,SSE,166,4.0,4.0,65,0.00,,,0.00,Wunderground v.1.15,2013-07-19 22:12:00,
2013-07-19 18:22:00,86.5,73.8,29.94,SSE,161,3.0,3.0,66,0.00,,,0.00,Wunderground v.1.15,2013-07-19 22:22:00,
2013-07-19 18:32:00,85.8,75.3,29.93,South,173,2.0,2.0,71,0.00,,,0.00,Wunderground v.1.15,2013-07-19 22:32:00,
2013-07-19 18:42:00,86.4,75.0,29.93,ESE,107,3.0,3.0,69,0.00,,,0.00,Wunderground v.1.15,2013-07-19 22:42:00,
2013-07-19 18:52:00,85.5,74.6,29.94,South,178,2.0,5.0,70,0.00,,,0.00,Wunderground v.1.15,2013-07-19 22:52:00,
2013-07-19 19:02:00,84.6,74.6,29.94,SSW,202,4.0,4.0,72,0.00,,,0.00,Wunderground v.1.15,2013-07-19 23:02:00,
2013-07-19 19:12:00,84.8,74.8,29.94,SSE,162,3.0,4.0,72,0.00,,,0.00,Wunderground v.1.15,2013-07-19 23:12:00,
2013-07-19 19:32:00,84.5,75.7,29.94,SSE,163,2.0,2.0,75,0.00,,,0.00,Wunderground v.1.15,2013-07-19 23:32:00,
2013-07-19 19:42:00,83.9,75.1,29.93,SE,139,2.0,2.0,75,0.00,,,0.00,Wunderground v.1.15,2013-07-19 23:42:00,
2013-07-19 19:52:00,83.2,74.8,29.93,South,173,2.0,2.0,76,0.00,,,0.00,Wunderground v.1.15,2013-07-19 23:52:00,
2013-07-19 20:02:00,82.6,74.7,29.94,South,171,1.0,1.0,77,0.00,,,0.00,Wunderground v.1.15,2013-07-20 00:02:00,
2013-07-19 20:12:00,82.2,74.7,29.95,South,187,1.0,1.0,78,0.00,,,0.00,Wunderground v.1.15,2013-07-20 00:12:00,
2013-07-19 20:22:00,81.4,75.0,29.95,South,186,0.0,0.0,81,0.00,,,0.00,Wunderground v.1.15,2013-07-20 00:22:00,
2013-07-19 20:32:00,81.0,75.0,29.95,South,187,0.0,0.0,82,0.00,,,0.00,Wunderground v.1.15,2013-07-20 00:32:00,
2013-07-19 20:42:00,80.8,75.2,29.95,South,187,0.0,0.0,83,0.00,,,0.00,Wunderground v.1.15,2013-07-20 00:42:00,
2013-07-19 20:52:00,79.9,75.0,29.95,South,186,0.0,0.0,85,0.00,,,0.00,Wunderground v.1.15,2013-07-20 00:52:00,
2013-07-19 21:02:00,79.1,74.9,29.95,South,187,0.0,0.0,87,0.00,,,0.00,Wunderground v.1.15,2013-07-20 01:02:00,
2013-07-19 21:12:00,78.5,74.6,29.95,South,187,0.0,0.0,88,0.00,,,0.00,Wunderground v.1.15,2013-07-20 01:12:00,
2013-07-19 21:22:00,78.2,74.7,29.95,South,187,0.0,0.0,89,0.00,,,0.00,Wunderground v.1.15,2013-07-20 01:22:00,
2013-07-19 21:32:00,78.0,74.5,29.96,South,187,0.0,0.0,89,0.00,,,0.00,Wunderground v.1.15,2013-07-20 01:32:00,
2013-07-19 21:42:00,77.2,74.0,29.96,South,187,0.0,0.0,90,0.00,,,0.00,Wunderground v.1.15,2013-07-20 01:42:00,
2013-07-19 21:52:00,77.3,74.5,29.96,South,187,0.0,0.0,91,0.00,,,0.00,Wunderground v.1.15,2013-07-20 01:52:00,
2013-07-19 22:02:00,77.3,74.5,29.97,South,187,0.0,0.0,91,0.00,,,0.00,Wunderground v.1.15,2013-07-20 02:02:00,
2013-07-19 22:12:00,77.4,74.2,29.97,South,187,0.0,0.0,90,0.00,,,0.00,Wunderground v.1.15,2013-07-20 02:12:00,
2013-07-19 22:22:00,77.0,74.2,29.97,South,187,0.0,0.0,91,0.00,,,0.00,Wunderground v.1.15,2013-07-20 02:22:00,
2013-07-19 22:32:00,76.0,73.5,29.98,South,187,0.0,0.0,92,0.00,,,0.00,Wunderground v.1.15,2013-07-20 02:32:00,
2013-07-19 22:42:00,75.5,73.7,29.97,South,187,0.0,0.0,94,0.00,,,0.00,Wunderground v.1.15,2013-07-20 02:42:00,
2013-07-19 22:52:00,75.7,73.8,29.98,South,187,0.0,0.0,94,0.00,,,0.00,Wunderground v.1.15,2013-07-20 02:52:00,
2013-07-19 23:02:00,75.6,73.8,29.98,South,187,0.0,0.0,94,0.00,,,0.00,Wunderground v.1.15,2013-07-20 03:02:00,
2013-07-19 23:12:00,75.3,73.5,29.98,South,187,0.0,0.0,94,0.00,,,0.00,Wunderground v.1.15,2013-07-20 03:12:00,
2013-07-19 23:22:00,74.9,73.1,29.99,South,187,0.0,0.0,94,0.00,,,0.00,Wunderground v.1.15,2013-07-20 03:22:00,
2013-07-19 23:32:00,74.8,73.3,29.99,South,187,0.0,0.0,95,0.00,,,0.00,Wunderground v.1.15,2013-07-20 03:32:00,
2013-07-19 23:42:00,75.1,73.3,29.99,South,187,0.0,0.0,94,0.00,,,0.00,Wunderground v.1.15,2013-07-20 03:42:00,
2013-07-19 23:52:00,75.5,73.3,29.99,South,187,0.0,0.0,93,0.00,,,0.00,Wunderground v.1.15,2013-07-20 03:52:00,